sensor_id;sensor_type;location;lat;lon;timestamp;temperature;humidity
22069;DHT22;13887;57.196;-2.100;2023-06-26T00:00:09;18.12;74.70
22069;DHT22;13887;57.196;-2.100;2023-06-26T00:02:39;18.13;74.59
22069;DHT22;13887;57.196;-2.100;2023-06-26T00:05:10;18.13;74.59
22069;DHT22;13887;57.196;-2.100;2023-06-26T00:07:42;18.13;74.58
22069;DHT22;13887;57.196;-2.100;2023-06-26T00:10:11;18.17;74.35
22069;DHT22;13887;57.196;-2.100;2023-06-26T00:12:38;18.15;74.21
22069;DHT22;13887;57.196;-2.100;2023-06-26T00:15:08;18.14;74.27
22069;DHT22;13887;57.196;-2.100;2023-06-26T00:17:48;18.18;74.22
22069;DHT22;13887;57.196;-2.100;2023-06-26T00:20:18;18.13;74.26
22069;DHT22;13887;57.196;-2.100;2023-06-26T00:22:49;18.11;74.18
22069;DHT22;13887;57.196;-2.100;2023-06-26T00:25:17;18.11;74.02
22069;DHT22;13887;57.196;-2.100;2023-06-26T00:27:46;18.10;73.93
22069;DHT22;13887;57.196;-2.100;2023-06-26T00:30:16;18.06;74.15
22069;DHT22;13887;57.196;-2.100;2023-06-26T00:32:47;18.05;74.27
22069;DHT22;13887;57.196;-2.100;2023-06-26T00:35:14;18.00;74.48
22069;DHT22;13887;57.196;-2.100;2023-06-26T00:37:44;18.00;74.47
22069;DHT22;13887;57.196;-2.100;2023-06-26T00:40:12;17.96;74.33
22069;DHT22;13887;57.196;-2.100;2023-06-26T00:42:47;17.96;74.12
22069;DHT22;13887;57.196;-2.100;2023-06-26T00:45:15;17.95;74.20
22069;DHT22;13887;57.196;-2.100;2023-06-26T00:47:59;17.95;74.08
22069;DHT22;13887;57.196;-2.100;2023-06-26T00:50:32;17.92;73.99
22069;DHT22;13887;57.196;-2.100;2023-06-26T00:53:18;17.89;74.02
22069;DHT22;13887;57.196;-2.100;2023-06-26T00:55:49;17.88;74.09
22069;DHT22;13887;57.196;-2.100;2023-06-26T00:58:17;17.87;74.01
22069;DHT22;13887;57.196;-2.100;2023-06-26T01:00:47;17.81;74.18
22069;DHT22;13887;57.196;-2.100;2023-06-26T01:03:21;17.79;74.25
22069;DHT22;13887;57.196;-2.100;2023-06-26T01:05:58;17.76;74.22
22069;DHT22;13887;57.196;-2.100;2023-06-26T01:08:31;17.70;74.41
22069;DHT22;13887;57.196;-2.100;2023-06-26T01:10:59;17.70;74.23
22069;DHT22;13887;57.196;-2.100;2023-06-26T01:13:28;17.68;74.18
22069;DHT22;13887;57.196;-2.100;2023-06-26T01:16:00;17.65;74.20
22069;DHT22;13887;57.196;-2.100;2023-06-26T01:18:32;17.66;74.12
22069;DHT22;13887;57.196;-2.100;2023-06-26T01:21:02;17.65;74.08
22069;DHT22;13887;57.196;-2.100;2023-06-26T01:24:07;17.62;74.06
22069;DHT22;13887;57.196;-2.100;2023-06-26T01:26:39;17.59;74.01
22069;DHT22;13887;57.196;-2.100;2023-06-26T01:29:19;17.53;74.09
22069;DHT22;13887;57.196;-2.100;2023-06-26T01:31:50;17.56;73.94
22069;DHT22;13887;57.196;-2.100;2023-06-26T01:34:20;17.54;73.77
22069;DHT22;13887;57.196;-2.100;2023-06-26T01:36:53;17.51;73.83
22069;DHT22;13887;57.196;-2.100;2023-06-26T01:39:25;17.55;73.74
22069;DHT22;13887;57.196;-2.100;2023-06-26T01:41:57;17.53;73.67
22069;DHT22;13887;57.196;-2.100;2023-06-26T01:44:28;17.50;73.48
22069;DHT22;13887;57.196;-2.100;2023-06-26T01:47:06;17.49;73.68
22069;DHT22;13887;57.196;-2.100;2023-06-26T01:49:51;17.46;73.77
22069;DHT22;13887;57.196;-2.100;2023-06-26T01:55:32;17.49;73.48
22069;DHT22;13887;57.196;-2.100;2023-06-26T01:58:08;17.43;73.51
22069;DHT22;13887;57.196;-2.100;2023-06-26T02:00:37;17.38;73.50
22069;DHT22;13887;57.196;-2.100;2023-06-26T02:03:14;17.34;73.68
22069;DHT22;13887;57.196;-2.100;2023-06-26T02:05:42;17.29;73.74
22069;DHT22;13887;57.196;-2.100;2023-06-26T02:08:22;17.30;73.77
22069;DHT22;13887;57.196;-2.100;2023-06-26T02:10:56;17.28;73.71
22069;DHT22;13887;57.196;-2.100;2023-06-26T02:13:28;17.28;73.51
22069;DHT22;13887;57.196;-2.100;2023-06-26T02:16:02;17.26;73.51
22069;DHT22;13887;57.196;-2.100;2023-06-26T02:18:34;17.26;73.51
22069;DHT22;13887;57.196;-2.100;2023-06-26T02:21:03;17.30;73.35
22069;DHT22;13887;57.196;-2.100;2023-06-26T02:23:34;17.26;73.28
22069;DHT22;13887;57.196;-2.100;2023-06-26T02:26:06;17.26;73.38
22069;DHT22;13887;57.196;-2.100;2023-06-26T02:28:39;17.26;73.34
22069;DHT22;13887;57.196;-2.100;2023-06-26T02:31:13;17.29;73.24
22069;DHT22;13887;57.196;-2.100;2023-06-26T02:33:41;17.25;73.35
22069;DHT22;13887;57.196;-2.100;2023-06-26T02:36:18;17.24;73.24
22069;DHT22;13887;57.196;-2.100;2023-06-26T02:38:46;17.22;73.21
22069;DHT22;13887;57.196;-2.100;2023-06-26T02:41:20;17.20;73.17
22069;DHT22;13887;57.196;-2.100;2023-06-26T02:43:51;17.18;73.31
22069;DHT22;13887;57.196;-2.100;2023-06-26T02:46:24;17.18;73.25
22069;DHT22;13887;57.196;-2.100;2023-06-26T02:48:58;17.14;73.07
22069;DHT22;13887;57.196;-2.100;2023-06-26T02:51:32;17.13;73.25
22069;DHT22;13887;57.196;-2.100;2023-06-26T02:54:13;17.14;73.17
22069;DHT22;13887;57.196;-2.100;2023-06-26T02:56:43;17.14;73.12
22069;DHT22;13887;57.196;-2.100;2023-06-26T02:59:19;17.13;73.14
22069;DHT22;13887;57.196;-2.100;2023-06-26T03:01:50;17.09;73.19
22069;DHT22;13887;57.196;-2.100;2023-06-26T03:04:24;17.09;73.07
22069;DHT22;13887;57.196;-2.100;2023-06-26T03:06:51;17.08;73.02
22069;DHT22;13887;57.196;-2.100;2023-06-26T03:09:26;17.07;73.12
22069;DHT22;13887;57.196;-2.100;2023-06-26T03:11:59;17.04;73.00
22069;DHT22;13887;57.196;-2.100;2023-06-26T03:14:33;17.01;72.84
22069;DHT22;13887;57.196;-2.100;2023-06-26T03:17:04;16.99;72.84
22069;DHT22;13887;57.196;-2.100;2023-06-26T03:19:35;17.00;72.70
22069;DHT22;13887;57.196;-2.100;2023-06-26T03:22:30;16.96;72.67
22069;DHT22;13887;57.196;-2.100;2023-06-26T03:25:01;16.98;72.90
22069;DHT22;13887;57.196;-2.100;2023-06-26T03:27:33;17.00;72.67
22069;DHT22;13887;57.196;-2.100;2023-06-26T03:30:07;16.96;72.59
22069;DHT22;13887;57.196;-2.100;2023-06-26T03:32:37;16.99;72.58
22069;DHT22;13887;57.196;-2.100;2023-06-26T03:35:10;16.94;72.73
22069;DHT22;13887;57.196;-2.100;2023-06-26T03:37:38;16.94;72.41
22069;DHT22;13887;57.196;-2.100;2023-06-26T03:40:08;16.92;72.67
22069;DHT22;13887;57.196;-2.100;2023-06-26T03:42:37;16.89;72.62
22069;DHT22;13887;57.196;-2.100;2023-06-26T03:45:07;16.88;72.58
22069;DHT22;13887;57.196;-2.100;2023-06-26T03:47:43;16.85;72.74
22069;DHT22;13887;57.196;-2.100;2023-06-26T03:50:13;16.86;72.66
22069;DHT22;13887;57.196;-2.100;2023-06-26T03:52:46;16.87;72.67
22069;DHT22;13887;57.196;-2.100;2023-06-26T03:55:17;16.85;72.66
22069;DHT22;13887;57.196;-2.100;2023-06-26T03:57:46;16.88;72.59
22069;DHT22;13887;57.196;-2.100;2023-06-26T04:00:17;16.90;72.58
22069;DHT22;13887;57.196;-2.100;2023-06-26T04:02:48;16.88;72.64
22069;DHT22;13887;57.196;-2.100;2023-06-26T04:05:20;16.87;72.61
22069;DHT22;13887;57.196;-2.100;2023-06-26T04:07:54;16.86;72.67
22069;DHT22;13887;57.196;-2.100;2023-06-26T04:10:26;16.86;72.63
22069;DHT22;13887;57.196;-2.100;2023-06-26T04:12:54;16.87;72.64
22069;DHT22;13887;57.196;-2.100;2023-06-26T04:15:24;16.89;72.46
22069;DHT22;13887;57.196;-2.100;2023-06-26T04:17:53;16.85;72.59
22069;DHT22;13887;57.196;-2.100;2023-06-26T04:20:21;16.86;72.63
22069;DHT22;13887;57.196;-2.100;2023-06-26T04:22:51;16.84;72.65
22069;DHT22;13887;57.196;-2.100;2023-06-26T04:25:22;16.84;72.65
22069;DHT22;13887;57.196;-2.100;2023-06-26T04:27:52;16.85;72.69
22069;DHT22;13887;57.196;-2.100;2023-06-26T04:30:23;16.81;72.72
22069;DHT22;13887;57.196;-2.100;2023-06-26T04:32:53;16.84;72.64
22069;DHT22;13887;57.196;-2.100;2023-06-26T04:35:20;16.84;72.69
22069;DHT22;13887;57.196;-2.100;2023-06-26T04:37:50;16.87;72.58
22069;DHT22;13887;57.196;-2.100;2023-06-26T04:40:22;16.85;72.59
22069;DHT22;13887;57.196;-2.100;2023-06-26T04:42:53;16.84;72.64
22069;DHT22;13887;57.196;-2.100;2023-06-26T04:45:21;16.85;72.59
22069;DHT22;13887;57.196;-2.100;2023-06-26T04:47:49;16.88;72.49
22069;DHT22;13887;57.196;-2.100;2023-06-26T04:50:18;16.89;72.40
22069;DHT22;13887;57.196;-2.100;2023-06-26T04:52:46;16.87;72.42
22069;DHT22;13887;57.196;-2.100;2023-06-26T04:55:13;16.84;72.60
22069;DHT22;13887;57.196;-2.100;2023-06-26T04:57:44;16.81;72.65
22069;DHT22;13887;57.196;-2.100;2023-06-26T05:00:12;16.77;72.63
22069;DHT22;13887;57.196;-2.100;2023-06-26T05:02:45;16.76;72.72
22069;DHT22;13887;57.196;-2.100;2023-06-26T05:05:13;16.78;72.67
22069;DHT22;13887;57.196;-2.100;2023-06-26T05:07:41;16.77;72.64
22069;DHT22;13887;57.196;-2.100;2023-06-26T05:10:12;16.73;72.70
22069;DHT22;13887;57.196;-2.100;2023-06-26T05:12:42;16.74;72.64
22069;DHT22;13887;57.196;-2.100;2023-06-26T05:15:16;16.70;72.77
22069;DHT22;13887;57.196;-2.100;2023-06-26T05:17:47;16.72;72.74
22069;DHT22;13887;57.196;-2.100;2023-06-26T05:20:17;16.69;72.56
22069;DHT22;13887;57.196;-2.100;2023-06-26T05:22:45;16.70;72.53
22069;DHT22;13887;57.196;-2.100;2023-06-26T05:25:18;16.73;72.47
22069;DHT22;13887;57.196;-2.100;2023-06-26T05:27:48;16.75;72.29
22069;DHT22;13887;57.196;-2.100;2023-06-26T05:30:19;16.80;72.10
22069;DHT22;13887;57.196;-2.100;2023-06-26T05:32:48;16.85;71.88
22069;DHT22;13887;57.196;-2.100;2023-06-26T05:35:18;16.82;71.81
22069;DHT22;13887;57.196;-2.100;2023-06-26T05:37:49;16.80;71.95
22069;DHT22;13887;57.196;-2.100;2023-06-26T05:40:20;16.80;71.88
22069;DHT22;13887;57.196;-2.100;2023-06-26T05:42:48;16.82;71.74
22069;DHT22;13887;57.196;-2.100;2023-06-26T05:45:20;16.82;71.77
22069;DHT22;13887;57.196;-2.100;2023-06-26T05:47:47;16.87;71.55
22069;DHT22;13887;57.196;-2.100;2023-06-26T05:50:20;16.85;71.58
22069;DHT22;13887;57.196;-2.100;2023-06-26T05:52:51;16.86;71.52
22069;DHT22;13887;57.196;-2.100;2023-06-26T05:55:21;16.90;71.48
22069;DHT22;13887;57.196;-2.100;2023-06-26T05:57:49;16.90;71.46
22069;DHT22;13887;57.196;-2.100;2023-06-26T06:00:18;16.95;71.26
22069;DHT22;13887;57.196;-2.100;2023-06-26T06:02:48;16.93;71.24
22069;DHT22;13887;57.196;-2.100;2023-06-26T06:05:16;16.93;71.26
22069;DHT22;13887;57.196;-2.100;2023-06-26T06:07:44;16.93;71.26
22069;DHT22;13887;57.196;-2.100;2023-06-26T06:10:13;16.91;71.42
22069;DHT22;13887;57.196;-2.100;2023-06-26T06:12:48;16.94;71.29
22069;DHT22;13887;57.196;-2.100;2023-06-26T06:15:18;16.99;71.22
22069;DHT22;13887;57.196;-2.100;2023-06-26T06:17:51;16.95;71.29
22069;DHT22;13887;57.196;-2.100;2023-06-26T06:20:18;16.95;71.19
22069;DHT22;13887;57.196;-2.100;2023-06-26T06:22:50;16.94;71.20
22069;DHT22;13887;57.196;-2.100;2023-06-26T06:25:20;16.93;71.25
22069;DHT22;13887;57.196;-2.100;2023-06-26T06:27:47;16.94;71.17
22069;DHT22;13887;57.196;-2.100;2023-06-26T06:30:18;16.91;71.17
22069;DHT22;13887;57.196;-2.100;2023-06-26T06:33:15;16.88;71.32
22069;DHT22;13887;57.196;-2.100;2023-06-26T06:35:43;16.90;71.22
22069;DHT22;13887;57.196;-2.100;2023-06-26T06:38:11;16.90;71.02
22069;DHT22;13887;57.196;-2.100;2023-06-26T06:40:41;16.87;71.01
22069;DHT22;13887;57.196;-2.100;2023-06-26T06:43:09;16.89;70.96
22069;DHT22;13887;57.196;-2.100;2023-06-26T06:45:36;16.88;70.89
22069;DHT22;13887;57.196;-2.100;2023-06-26T06:48:05;16.86;70.68
22069;DHT22;13887;57.196;-2.100;2023-06-26T06:50:32;16.85;70.77
22069;DHT22;13887;57.196;-2.100;2023-06-26T06:53:00;16.87;70.77
22069;DHT22;13887;57.196;-2.100;2023-06-26T06:55:33;16.89;70.78
22069;DHT22;13887;57.196;-2.100;2023-06-26T06:58:04;16.88;70.90
22069;DHT22;13887;57.196;-2.100;2023-06-26T07:00:33;16.89;70.81
22069;DHT22;13887;57.196;-2.100;2023-06-26T07:03:03;16.87;70.77
22069;DHT22;13887;57.196;-2.100;2023-06-26T07:05:31;16.85;70.76
22069;DHT22;13887;57.196;-2.100;2023-06-26T07:07:58;16.87;70.76
22069;DHT22;13887;57.196;-2.100;2023-06-26T07:10:31;16.90;70.66
22069;DHT22;13887;57.196;-2.100;2023-06-26T07:13:01;16.89;70.63
22069;DHT22;13887;57.196;-2.100;2023-06-26T07:15:29;16.88;70.86
22069;DHT22;13887;57.196;-2.100;2023-06-26T07:17:56;16.93;70.74
22069;DHT22;13887;57.196;-2.100;2023-06-26T07:20:26;16.95;70.68
22069;DHT22;13887;57.196;-2.100;2023-06-26T07:22:54;16.94;70.71
22069;DHT22;13887;57.196;-2.100;2023-06-26T07:25:23;16.95;70.13
22069;DHT22;13887;57.196;-2.100;2023-06-26T07:27:53;16.95;70.52
22069;DHT22;13887;57.196;-2.100;2023-06-26T07:30:21;16.92;70.48
22069;DHT22;13887;57.196;-2.100;2023-06-26T07:32:51;16.91;70.76
22069;DHT22;13887;57.196;-2.100;2023-06-26T07:35:18;16.90;70.86
22069;DHT22;13887;57.196;-2.100;2023-06-26T07:37:53;16.94;71.02
22069;DHT22;13887;57.196;-2.100;2023-06-26T07:40:27;16.92;70.71
22069;DHT22;13887;57.196;-2.100;2023-06-26T07:42:54;16.91;70.31
22069;DHT22;13887;57.196;-2.100;2023-06-26T07:45:22;16.93;70.18
22069;DHT22;13887;57.196;-2.100;2023-06-26T07:47:53;16.93;70.26
22069;DHT22;13887;57.196;-2.100;2023-06-26T07:50:23;16.93;70.64
22069;DHT22;13887;57.196;-2.100;2023-06-26T07:52:57;16.92;70.36
22069;DHT22;13887;57.196;-2.100;2023-06-26T07:55:27;16.93;70.38
22069;DHT22;13887;57.196;-2.100;2023-06-26T07:57:56;16.90;69.70
22069;DHT22;13887;57.196;-2.100;2023-06-26T08:00:28;16.89;69.80
22069;DHT22;13887;57.196;-2.100;2023-06-26T08:02:55;16.90;69.59
22069;DHT22;13887;57.196;-2.100;2023-06-26T08:05:31;16.92;70.08
22069;DHT22;13887;57.196;-2.100;2023-06-26T08:08:01;16.91;70.08
22069;DHT22;13887;57.196;-2.100;2023-06-26T08:10:32;16.94;70.26
22069;DHT22;13887;57.196;-2.100;2023-06-26T08:13:08;16.95;70.13
22069;DHT22;13887;57.196;-2.100;2023-06-26T08:15:35;16.94;69.58
22069;DHT22;13887;57.196;-2.100;2023-06-26T08:18:06;16.95;69.68
22069;DHT22;13887;57.196;-2.100;2023-06-26T08:20:35;16.95;69.23
22069;DHT22;13887;57.196;-2.100;2023-06-26T08:23:04;16.95;69.68
22069;DHT22;13887;57.196;-2.100;2023-06-26T08:25:32;16.98;69.94
22069;DHT22;13887;57.196;-2.100;2023-06-26T08:28:02;16.96;69.09
22069;DHT22;13887;57.196;-2.100;2023-06-26T08:30:32;16.94;69.34
22069;DHT22;13887;57.196;-2.100;2023-06-26T08:32:59;16.95;69.59
22069;DHT22;13887;57.196;-2.100;2023-06-26T08:35:29;16.96;69.56
22069;DHT22;13887;57.196;-2.100;2023-06-26T08:38:02;16.98;69.80
22069;DHT22;13887;57.196;-2.100;2023-06-26T08:40:30;17.00;69.67
22069;DHT22;13887;57.196;-2.100;2023-06-26T08:43:07;16.99;70.06
22069;DHT22;13887;57.196;-2.100;2023-06-26T08:45:34;17.01;69.68
22069;DHT22;13887;57.196;-2.100;2023-06-26T08:48:03;17.03;69.81
22069;DHT22;13887;57.196;-2.100;2023-06-26T08:50:35;17.02;69.65
22069;DHT22;13887;57.196;-2.100;2023-06-26T08:53:16;17.04;69.42
22069;DHT22;13887;57.196;-2.100;2023-06-26T08:55:52;17.03;69.46
22069;DHT22;13887;57.196;-2.100;2023-06-26T08:58:20;17.05;69.61
22069;DHT22;13887;57.196;-2.100;2023-06-26T09:00:53;17.04;68.26
22069;DHT22;13887;57.196;-2.100;2023-06-26T09:03:30;17.05;68.57
22069;DHT22;13887;57.196;-2.100;2023-06-26T09:06:03;17.04;68.78
22069;DHT22;13887;57.196;-2.100;2023-06-26T09:08:34;17.07;68.25
22069;DHT22;13887;57.196;-2.100;2023-06-26T09:11:05;17.10;68.42
22069;DHT22;13887;57.196;-2.100;2023-06-26T09:13:33;17.09;68.29
22069;DHT22;13887;57.196;-2.100;2023-06-26T09:16:06;17.07;67.92
22069;DHT22;13887;57.196;-2.100;2023-06-26T09:18:35;17.10;67.75
22069;DHT22;13887;57.196;-2.100;2023-06-26T09:21:09;17.09;67.44
22069;DHT22;13887;57.196;-2.100;2023-06-26T09:23:43;17.17;68.10
22069;DHT22;13887;57.196;-2.100;2023-06-26T09:26:16;17.19;68.62
22069;DHT22;13887;57.196;-2.100;2023-06-26T09:28:48;17.20;68.65
22069;DHT22;13887;57.196;-2.100;2023-06-26T09:31:20;17.20;68.49
22069;DHT22;13887;57.196;-2.100;2023-06-26T09:34:07;17.20;68.62
22069;DHT22;13887;57.196;-2.100;2023-06-26T09:36:34;17.20;68.22
22069;DHT22;13887;57.196;-2.100;2023-06-26T09:39:08;17.20;68.21
22069;DHT22;13887;57.196;-2.100;2023-06-26T09:41:45;17.22;67.99
22069;DHT22;13887;57.196;-2.100;2023-06-26T09:44:15;17.24;68.21
22069;DHT22;13887;57.196;-2.100;2023-06-26T09:46:45;17.23;66.88
22069;DHT22;13887;57.196;-2.100;2023-06-26T09:49:14;17.26;67.78
22069;DHT22;13887;57.196;-2.100;2023-06-26T09:51:42;17.28;67.46
22069;DHT22;13887;57.196;-2.100;2023-06-26T09:54:19;17.31;67.65
22069;DHT22;13887;57.196;-2.100;2023-06-26T09:56:48;17.33;67.74
22069;DHT22;13887;57.196;-2.100;2023-06-26T09:59:16;17.34;67.08
22069;DHT22;13887;57.196;-2.100;2023-06-26T10:01:45;17.34;67.78
22069;DHT22;13887;57.196;-2.100;2023-06-26T10:04:18;17.36;67.75
22069;DHT22;13887;57.196;-2.100;2023-06-26T10:06:51;17.35;67.68
22069;DHT22;13887;57.196;-2.100;2023-06-26T10:09:25;17.38;67.27
22069;DHT22;13887;57.196;-2.100;2023-06-26T10:11:58;17.38;67.40
22069;DHT22;13887;57.196;-2.100;2023-06-26T10:14:35;17.38;66.68
22069;DHT22;13887;57.196;-2.100;2023-06-26T10:17:07;17.41;67.04
22069;DHT22;13887;57.196;-2.100;2023-06-26T10:19:38;17.40;67.46
22069;DHT22;13887;57.196;-2.100;2023-06-26T10:22:07;17.43;68.21
22069;DHT22;13887;57.196;-2.100;2023-06-26T10:24:41;17.45;67.35
22069;DHT22;13887;57.196;-2.100;2023-06-26T10:27:15;17.46;67.55
22069;DHT22;13887;57.196;-2.100;2023-06-26T10:30:00;17.47;66.81
22069;DHT22;13887;57.196;-2.100;2023-06-26T10:32:33;17.48;67.30
22069;DHT22;13887;57.196;-2.100;2023-06-26T10:35:05;17.49;67.42
22069;DHT22;13887;57.196;-2.100;2023-06-26T10:37:50;17.45;66.47
22069;DHT22;13887;57.196;-2.100;2023-06-26T10:40:25;17.48;67.01
22069;DHT22;13887;57.196;-2.100;2023-06-26T10:43:06;17.50;67.41
22069;DHT22;13887;57.196;-2.100;2023-06-26T10:45:47;17.48;67.40
22069;DHT22;13887;57.196;-2.100;2023-06-26T10:48:20;17.48;66.24
22069;DHT22;13887;57.196;-2.100;2023-06-26T10:50:50;17.48;66.67
22069;DHT22;13887;57.196;-2.100;2023-06-26T10:56:00;17.49;66.68
22069;DHT22;13887;57.196;-2.100;2023-06-26T11:01:21;17.50;67.24
22069;DHT22;13887;57.196;-2.100;2023-06-26T11:06:28;17.50;65.78
22069;DHT22;13887;57.196;-2.100;2023-06-26T11:09:07;17.52;66.37
22069;DHT22;13887;57.196;-2.100;2023-06-26T11:11:55;17.50;65.14
22069;DHT22;13887;57.196;-2.100;2023-06-26T11:14:32;17.52;65.27
22069;DHT22;13887;57.196;-2.100;2023-06-26T11:17:03;17.55;65.80
22069;DHT22;13887;57.196;-2.100;2023-06-26T11:19:30;17.55;65.89
22069;DHT22;13887;57.196;-2.100;2023-06-26T11:22:10;17.59;66.26
22069;DHT22;13887;57.196;-2.100;2023-06-26T11:24:43;17.62;66.30
22069;DHT22;13887;57.196;-2.100;2023-06-26T11:27:19;17.60;65.22
22069;DHT22;13887;57.196;-2.100;2023-06-26T11:29:48;17.61;65.64
22069;DHT22;13887;57.196;-2.100;2023-06-26T11:32:16;17.61;65.93
22069;DHT22;13887;57.196;-2.100;2023-06-26T11:34:50;17.62;66.04
22069;DHT22;13887;57.196;-2.100;2023-06-26T11:37:28;17.62;66.09
22069;DHT22;13887;57.196;-2.100;2023-06-26T11:40:16;17.62;64.99
22069;DHT22;13887;57.196;-2.100;2023-06-26T11:42:44;17.63;63.80
22069;DHT22;13887;57.196;-2.100;2023-06-26T11:45:15;17.67;64.31
22069;DHT22;13887;57.196;-2.100;2023-06-26T11:47:45;17.68;64.44
22069;DHT22;13887;57.196;-2.100;2023-06-26T11:50:16;17.72;64.43
22069;DHT22;13887;57.196;-2.100;2023-06-26T11:52:53;17.75;64.49
22069;DHT22;13887;57.196;-2.100;2023-06-26T11:55:23;17.75;64.85
22069;DHT22;13887;57.196;-2.100;2023-06-26T11:57:53;17.73;64.95
22069;DHT22;13887;57.196;-2.100;2023-06-26T12:00:21;17.66;65.14
22069;DHT22;13887;57.196;-2.100;2023-06-26T12:02:52;17.66;65.14
22069;DHT22;13887;57.196;-2.100;2023-06-26T12:05:25;17.62;65.37
22069;DHT22;13887;57.196;-2.100;2023-06-26T12:07:56;17.60;65.95
22069;DHT22;13887;57.196;-2.100;2023-06-26T12:10:24;17.56;66.07
22069;DHT22;13887;57.196;-2.100;2023-06-26T12:12:53;17.59;66.65
22069;DHT22;13887;57.196;-2.100;2023-06-26T12:15:28;17.59;66.19
22069;DHT22;13887;57.196;-2.100;2023-06-26T12:18:08;17.62;65.99
22069;DHT22;13887;57.196;-2.100;2023-06-26T12:20:40;17.66;66.31
22069;DHT22;13887;57.196;-2.100;2023-06-26T12:23:14;17.64;66.46
22069;DHT22;13887;57.196;-2.100;2023-06-26T12:25:53;17.65;66.11
22069;DHT22;13887;57.196;-2.100;2023-06-26T12:28:23;17.64;65.20
22069;DHT22;13887;57.196;-2.100;2023-06-26T12:31:16;17.63;64.46
22069;DHT22;13887;57.196;-2.100;2023-06-26T12:33:43;17.64;64.56
22069;DHT22;13887;57.196;-2.100;2023-06-26T12:36:14;17.68;64.40
22069;DHT22;13887;57.196;-2.100;2023-06-26T12:38:54;17.70;65.40
22069;DHT22;13887;57.196;-2.100;2023-06-26T12:41:24;17.78;64.98
22069;DHT22;13887;57.196;-2.100;2023-06-26T12:43:58;17.77;64.48
22069;DHT22;13887;57.196;-2.100;2023-06-26T12:46:35;17.80;64.55
22069;DHT22;13887;57.196;-2.100;2023-06-26T12:49:05;17.83;64.70
22069;DHT22;13887;57.196;-2.100;2023-06-26T12:51:55;17.85;64.78
22069;DHT22;13887;57.196;-2.100;2023-06-26T12:54:24;17.85;65.15
22069;DHT22;13887;57.196;-2.100;2023-06-26T12:56:55;17.75;65.95
22069;DHT22;13887;57.196;-2.100;2023-06-26T12:59:25;17.54;68.37
22069;DHT22;13887;57.196;-2.100;2023-06-26T13:02:04;17.38;69.24
22069;DHT22;13887;57.196;-2.100;2023-06-26T13:04:37;17.30;69.89
22069;DHT22;13887;57.196;-2.100;2023-06-26T13:07:10;17.23;70.77
22069;DHT22;13887;57.196;-2.100;2023-06-26T13:09:45;17.17;71.36
22069;DHT22;13887;57.196;-2.100;2023-06-26T13:12:17;17.17;71.35
22069;DHT22;13887;57.196;-2.100;2023-06-26T13:14:47;17.18;71.75
22069;DHT22;13887;57.196;-2.100;2023-06-26T13:17:21;17.22;71.87
22069;DHT22;13887;57.196;-2.100;2023-06-26T13:19:51;17.23;72.06
22069;DHT22;13887;57.196;-2.100;2023-06-26T13:22:21;17.21;72.25
22069;DHT22;13887;57.196;-2.100;2023-06-26T13:24:50;17.21;72.68
22069;DHT22;13887;57.196;-2.100;2023-06-26T13:27:17;17.23;72.77
22069;DHT22;13887;57.196;-2.100;2023-06-26T13:29:50;17.19;73.10
22069;DHT22;13887;57.196;-2.100;2023-06-26T13:32:20;17.20;73.38
22069;DHT22;13887;57.196;-2.100;2023-06-26T13:34:47;17.20;73.58
22069;DHT22;13887;57.196;-2.100;2023-06-26T13:37:21;17.20;73.94
22069;DHT22;13887;57.196;-2.100;2023-06-26T13:39:52;17.23;74.07
22069;DHT22;13887;57.196;-2.100;2023-06-26T13:42:22;17.23;74.01
22069;DHT22;13887;57.196;-2.100;2023-06-26T13:44:50;17.25;74.08
22069;DHT22;13887;57.196;-2.100;2023-06-26T13:47:32;17.26;74.33
22069;DHT22;13887;57.196;-2.100;2023-06-26T13:50:07;17.26;74.34
22069;DHT22;13887;57.196;-2.100;2023-06-26T13:52:34;17.29;74.76
22069;DHT22;13887;57.196;-2.100;2023-06-26T13:55:05;17.31;74.81
22069;DHT22;13887;57.196;-2.100;2023-06-26T13:57:32;17.32;75.16
22069;DHT22;13887;57.196;-2.100;2023-06-26T14:00:05;17.33;75.33
22069;DHT22;13887;57.196;-2.100;2023-06-26T14:02:38;17.33;75.41
22069;DHT22;13887;57.196;-2.100;2023-06-26T14:05:08;17.34;75.73
22069;DHT22;13887;57.196;-2.100;2023-06-26T14:07:41;17.31;77.15
22069;DHT22;13887;57.196;-2.100;2023-06-26T14:10:11;17.23;77.35
22069;DHT22;13887;57.196;-2.100;2023-06-26T14:12:38;17.23;77.35
22069;DHT22;13887;57.196;-2.100;2023-06-26T14:15:08;17.21;77.63
22069;DHT22;13887;57.196;-2.100;2023-06-26T14:17:39;17.23;77.53
22069;DHT22;13887;57.196;-2.100;2023-06-26T14:20:09;17.26;77.58
22069;DHT22;13887;57.196;-2.100;2023-06-26T14:22:42;17.26;77.31
22069;DHT22;13887;57.196;-2.100;2023-06-26T14:25:17;17.30;77.11
22069;DHT22;13887;57.196;-2.100;2023-06-26T14:27:47;17.31;77.25
22069;DHT22;13887;57.196;-2.100;2023-06-26T14:30:14;17.29;77.45
22069;DHT22;13887;57.196;-2.100;2023-06-26T14:32:45;17.24;77.62
22069;DHT22;13887;57.196;-2.100;2023-06-26T14:35:20;17.25;77.22
22069;DHT22;13887;57.196;-2.100;2023-06-26T14:37:48;17.26;76.97
22069;DHT22;13887;57.196;-2.100;2023-06-26T14:40:19;17.30;76.63
22069;DHT22;13887;57.196;-2.100;2023-06-26T14:42:47;17.31;76.72
22069;DHT22;13887;57.196;-2.100;2023-06-26T14:45:20;17.38;76.24
22069;DHT22;13887;57.196;-2.100;2023-06-26T14:47:53;17.37;76.23
22069;DHT22;13887;57.196;-2.100;2023-06-26T14:50:23;17.30;76.15
22069;DHT22;13887;57.196;-2.100;2023-06-26T14:52:53;17.33;75.60
22069;DHT22;13887;57.196;-2.100;2023-06-26T14:55:23;17.31;75.08
22069;DHT22;13887;57.196;-2.100;2023-06-26T14:57:50;17.34;74.57
22069;DHT22;13887;57.196;-2.100;2023-06-26T15:00:21;17.34;74.59
22069;DHT22;13887;57.196;-2.100;2023-06-26T15:02:48;17.31;74.57
22069;DHT22;13887;57.196;-2.100;2023-06-26T15:05:19;17.30;74.29
22069;DHT22;13887;57.196;-2.100;2023-06-26T15:07:49;17.32;74.05
22069;DHT22;13887;57.196;-2.100;2023-06-26T15:10:16;17.30;73.71
22069;DHT22;13887;57.196;-2.100;2023-06-26T15:12:47;17.29;73.51
22069;DHT22;13887;57.196;-2.100;2023-06-26T15:15:18;17.21;73.21
22069;DHT22;13887;57.196;-2.100;2023-06-26T15:17:46;17.18;73.18
22069;DHT22;13887;57.196;-2.100;2023-06-26T15:20:16;17.16;73.41
22069;DHT22;13887;57.196;-2.100;2023-06-26T15:22:49;17.13;73.69
22069;DHT22;13887;57.196;-2.100;2023-06-26T15:25:16;17.08;74.18
22069;DHT22;13887;57.196;-2.100;2023-06-26T15:27:50;17.09;74.35
22069;DHT22;13887;57.196;-2.100;2023-06-26T15:30:18;17.11;74.43
22069;DHT22;13887;57.196;-2.100;2023-06-26T15:32:49;17.20;74.37
22069;DHT22;13887;57.196;-2.100;2023-06-26T15:35:21;17.23;74.41
22069;DHT22;13887;57.196;-2.100;2023-06-26T15:37:49;17.26;74.48
22069;DHT22;13887;57.196;-2.100;2023-06-26T15:40:20;17.26;74.38
22069;DHT22;13887;57.196;-2.100;2023-06-26T15:42:51;17.29;74.53
22069;DHT22;13887;57.196;-2.100;2023-06-26T15:45:24;17.26;74.74
22069;DHT22;13887;57.196;-2.100;2023-06-26T15:47:55;17.26;74.86
22069;DHT22;13887;57.196;-2.100;2023-06-26T15:50:28;17.24;75.28
22069;DHT22;13887;57.196;-2.100;2023-06-26T15:53:05;17.21;75.22